sensor_id;sensor_type;location;lat;lon;timestamp;temperature;humidity
43581;DHT22;29175;51.030;4.606;2022-09-14T00:02:02;19.50;99.90
43581;DHT22;29175;51.030;4.606;2022-09-14T00:04:28;19.50;99.90
43581;DHT22;29175;51.030;4.606;2022-09-14T00:06:53;19.00;99.90
43581;DHT22;29175;51.030;4.606;2022-09-14T00:09:23;19.10;99.90
43581;DHT22;29175;51.030;4.606;2022-09-14T00:11:49;19.30;99.90
43581;DHT22;29175;51.030;4.606;2022-09-14T00:14:17;19.40;99.90
43581;DHT22;29175;51.030;4.606;2022-09-14T00:16:43;19.50;99.90
43581;DHT22;29175;51.030;4.606;2022-09-14T00:19:22;19.40;99.90
43581;DHT22;29175;51.030;4.606;2022-09-14T00:21:53;19.60;99.90
43581;DHT22;29175;51.030;4.606;2022-09-14T00:24:19;19.40;99.90
43581;DHT22;29175;51.030;4.606;2022-09-14T00:26:45;19.10;99.90
43581;DHT22;29175;51.030;4.606;2022-09-14T00:29:11;19.00;99.90
43581;DHT22;29175;51.030;4.606;2022-09-14T00:31:38;19.10;99.90
43581;DHT22;29175;51.030;4.606;2022-09-14T00:34:06;18.90;99.90
43581;DHT22;29175;51.030;4.606;2022-09-14T00:36:38;18.70;99.90
43581;DHT22;29175;51.030;4.606;2022-09-14T00:39:04;18.70;99.90
43581;DHT22;29175;51.030;4.606;2022-09-14T00:41:32;18.80;99.90
43581;DHT22;29175;51.030;4.606;2022-09-14T00:44:01;18.70;99.90
43581;DHT22;29175;51.030;4.606;2022-09-14T00:46:35;18.70;99.90
43581;DHT22;29175;51.030;4.606;2022-09-14T00:49:04;18.70;99.90
43581;DHT22;29175;51.030;4.606;2022-09-14T00:51:33;18.90;99.90
43581;DHT22;29175;51.030;4.606;2022-09-14T00:54:03;19.10;99.90
43581;DHT22;29175;51.030;4.606;2022-09-14T00:56:31;18.80;99.90
43581;DHT22;29175;51.030;4.606;2022-09-14T00:58:58;19.00;99.90
43581;DHT22;29175;51.030;4.606;2022-09-14T01:01:25;19.10;99.90
43581;DHT22;29175;51.030;4.606;2022-09-14T01:03:51;19.10;99.90
43581;DHT22;29175;51.030;4.606;2022-09-14T01:08:55;18.70;99.90
43581;DHT22;29175;51.030;4.606;2022-09-14T01:16:53;19.10;99.90
43581;DHT22;29175;51.030;4.606;2022-09-14T01:22:13;19.20;99.90
43581;DHT22;29175;51.030;4.606;2022-09-14T01:24:44;19.20;99.90
43581;DHT22;29175;51.030;4.606;2022-09-14T01:29:53;19.50;99.90
43581;DHT22;29175;51.030;4.606;2022-09-14T01:32:29;19.20;99.90
43581;DHT22;29175;51.030;4.606;2022-09-14T01:35:12;18.90;99.90
43581;DHT22;29175;51.030;4.606;2022-09-14T01:37:49;18.70;99.90
43581;DHT22;29175;51.030;4.606;2022-09-14T01:40:21;18.60;99.90
43581;DHT22;29175;51.030;4.606;2022-09-14T01:42:52;18.70;99.90
43581;DHT22;29175;51.030;4.606;2022-09-14T01:45:21;18.90;99.90
43581;DHT22;29175;51.030;4.606;2022-09-14T01:47:54;19.20;99.90
43581;DHT22;29175;51.030;4.606;2022-09-14T01:50:34;19.10;99.90
43581;DHT22;29175;51.030;4.606;2022-09-14T01:55:57;19.10;99.90
43581;DHT22;29175;51.030;4.606;2022-09-14T01:59:00;19.40;99.90
43581;DHT22;29175;51.030;4.606;2022-09-14T02:01:36;19.20;99.90
43581;DHT22;29175;51.030;4.606;2022-09-14T02:04:07;19.30;99.90
43581;DHT22;29175;51.030;4.606;2022-09-14T02:06:43;19.20;99.90
43581;DHT22;29175;51.030;4.606;2022-09-14T02:09:14;19.20;99.90
43581;DHT22;29175;51.030;4.606;2022-09-14T02:11:41;19.30;99.90
43581;DHT22;29175;51.030;4.606;2022-09-14T02:14:07;19.40;99.90
43581;DHT22;29175;51.030;4.606;2022-09-14T02:16:34;19.30;99.90
43581;DHT22;29175;51.030;4.606;2022-09-14T02:18:59;19.40;99.90
43581;DHT22;29175;51.030;4.606;2022-09-14T02:21:28;19.50;99.90
43581;DHT22;29175;51.030;4.606;2022-09-14T02:23:55;19.40;99.90
43581;DHT22;29175;51.030;4.606;2022-09-14T02:26:25;19.30;99.90
43581;DHT22;29175;51.030;4.606;2022-09-14T02:28:51;19.00;99.90
43581;DHT22;29175;51.030;4.606;2022-09-14T02:31:45;19.00;99.90
43581;DHT22;29175;51.030;4.606;2022-09-14T02:34:29;19.30;99.90
43581;DHT22;29175;51.030;4.606;2022-09-14T02:37:25;19.20;99.90
43581;DHT22;29175;51.030;4.606;2022-09-14T02:45:30;18.90;99.90
43581;DHT22;29175;51.030;4.606;2022-09-14T02:48:21;19.00;99.90
43581;DHT22;29175;51.030;4.606;2022-09-14T02:51:05;19.00;99.90
43581;DHT22;29175;51.030;4.606;2022-09-14T02:53:57;19.10;99.90
43581;DHT22;29175;51.030;4.606;2022-09-14T02:56:26;19.20;99.90
43581;DHT22;29175;51.030;4.606;2022-09-14T02:58:52;19.30;99.90
43581;DHT22;29175;51.030;4.606;2022-09-14T03:01:21;19.20;99.90
43581;DHT22;29175;51.030;4.606;2022-09-14T03:03:47;19.20;99.90
43581;DHT22;29175;51.030;4.606;2022-09-14T03:06:13;19.20;99.90
43581;DHT22;29175;51.030;4.606;2022-09-14T03:08:39;19.30;99.90
43581;DHT22;29175;51.030;4.606;2022-09-14T03:11:06;19.30;99.90
43581;DHT22;29175;51.030;4.606;2022-09-14T03:13:32;19.30;99.90
43581;DHT22;29175;51.030;4.606;2022-09-14T03:16:04;19.30;99.90
43581;DHT22;29175;51.030;4.606;2022-09-14T03:18:31;19.20;99.90
43581;DHT22;29175;51.030;4.606;2022-09-14T03:21:08;19.00;99.90
43581;DHT22;29175;51.030;4.606;2022-09-14T03:23:39;18.80;99.90
43581;DHT22;29175;51.030;4.606;2022-09-14T03:26:11;18.90;99.90
43581;DHT22;29175;51.030;4.606;2022-09-14T03:28:37;18.80;99.90
43581;DHT22;29175;51.030;4.606;2022-09-14T03:31:04;18.70;99.90
43581;DHT22;29175;51.030;4.606;2022-09-14T03:33:31;18.70;99.90
43581;DHT22;29175;51.030;4.606;2022-09-14T03:35:57;18.80;99.90
43581;DHT22;29175;51.030;4.606;2022-09-14T03:38:23;19.10;99.90
43581;DHT22;29175;51.030;4.606;2022-09-14T03:40:51;19.10;99.90
43581;DHT22;29175;51.030;4.606;2022-09-14T03:43:17;18.90;99.90
43581;DHT22;29175;51.030;4.606;2022-09-14T03:45:43;18.80;99.90
43581;DHT22;29175;51.030;4.606;2022-09-14T03:48:09;18.50;99.90
43581;DHT22;29175;51.030;4.606;2022-09-14T03:50:37;18.40;99.90
43581;DHT22;29175;51.030;4.606;2022-09-14T03:53:03;18.40;99.90
43581;DHT22;29175;51.030;4.606;2022-09-14T03:55:30;18.40;99.90
43581;DHT22;29175;51.030;4.606;2022-09-14T03:57:56;18.60;99.90
43581;DHT22;29175;51.030;4.606;2022-09-14T04:00:22;18.70;99.90
43581;DHT22;29175;51.030;4.606;2022-09-14T04:02:49;18.80;99.90
43581;DHT22;29175;51.030;4.606;2022-09-14T04:05:14;18.50;99.90
43581;DHT22;29175;51.030;4.606;2022-09-14T04:07:40;18.20;99.90
43581;DHT22;29175;51.030;4.606;2022-09-14T04:10:06;18.30;99.90
43581;DHT22;29175;51.030;4.606;2022-09-14T04:12:38;18.40;99.90
43581;DHT22;29175;51.030;4.606;2022-09-14T04:15:07;18.50;99.90
43581;DHT22;29175;51.030;4.606;2022-09-14T04:17:33;18.60;99.90
43581;DHT22;29175;51.030;4.606;2022-09-14T04:19:59;18.60;99.90
43581;DHT22;29175;51.030;4.606;2022-09-14T04:22:25;18.50;99.90
43581;DHT22;29175;51.030;4.606;2022-09-14T04:24:52;18.40;99.90
43581;DHT22;29175;51.030;4.606;2022-09-14T04:27:19;18.30;99.90
43581;DHT22;29175;51.030;4.606;2022-09-14T04:29:48;18.30;99.90
43581;DHT22;29175;51.030;4.606;2022-09-14T04:32:14;18.60;99.90
43581;DHT22;29175;51.030;4.606;2022-09-14T04:34:40;18.50;99.90
43581;DHT22;29175;51.030;4.606;2022-09-14T04:37:05;18.50;99.90
43581;DHT22;29175;51.030;4.606;2022-09-14T04:39:31;18.60;99.90
43581;DHT22;29175;51.030;4.606;2022-09-14T04:41:57;18.70;99.90
43581;DHT22;29175;51.030;4.606;2022-09-14T04:44:23;18.60;99.90
43581;DHT22;29175;51.030;4.606;2022-09-14T04:46:48;18.40;99.90
43581;DHT22;29175;51.030;4.606;2022-09-14T04:49:15;18.40;99.90
43581;DHT22;29175;51.030;4.606;2022-09-14T04:51:43;18.40;99.90
43581;DHT22;29175;51.030;4.606;2022-09-14T04:54:13;18.20;99.90
43581;DHT22;29175;51.030;4.606;2022-09-14T04:56:40;18.00;99.90
43581;DHT22;29175;51.030;4.606;2022-09-14T04:59:06;17.90;99.90
43581;DHT22;29175;51.030;4.606;2022-09-14T05:01:43;17.90;99.90
43581;DHT22;29175;51.030;4.606;2022-09-14T05:04:10;17.50;99.90
43581;DHT22;29175;51.030;4.606;2022-09-14T05:06:37;17.50;99.90
43581;DHT22;29175;51.030;4.606;2022-09-14T05:09:05;17.40;99.90
43581;DHT22;29175;51.030;4.606;2022-09-14T05:11:33;17.50;99.90
43581;DHT22;29175;51.030;4.606;2022-09-14T05:14:00;17.90;99.90
43581;DHT22;29175;51.030;4.606;2022-09-14T05:16:34;17.80;99.90
43581;DHT22;29175;51.030;4.606;2022-09-14T05:19:03;17.80;99.90
43581;DHT22;29175;51.030;4.606;2022-09-14T05:21:30;17.50;99.90
43581;DHT22;29175;51.030;4.606;2022-09-14T05:24:11;17.40;99.90
43581;DHT22;29175;51.030;4.606;2022-09-14T05:26:40;17.40;99.90
43581;DHT22;29175;51.030;4.606;2022-09-14T05:29:14;17.30;99.90
43581;DHT22;29175;51.030;4.606;2022-09-14T05:31:41;17.30;99.90
43581;DHT22;29175;51.030;4.606;2022-09-14T05:34:08;17.30;99.90
43581;DHT22;29175;51.030;4.606;2022-09-14T05:36:37;17.20;99.90
43581;DHT22;29175;51.030;4.606;2022-09-14T05:39:04;17.40;99.90
43581;DHT22;29175;51.030;4.606;2022-09-14T05:41:30;17.60;99.90
43581;DHT22;29175;51.030;4.606;2022-09-14T05:44:00;17.60;99.90
43581;DHT22;29175;51.030;4.606;2022-09-14T05:46:26;17.30;99.90
43581;DHT22;29175;51.030;4.606;2022-09-14T05:48:51;17.10;99.90
43581;DHT22;29175;51.030;4.606;2022-09-14T05:51:20;17.10;99.90
43581;DHT22;29175;51.030;4.606;2022-09-14T05:56:16;17.40;99.90
43581;DHT22;29175;51.030;4.606;2022-09-14T05:58:43;17.40;99.90
43581;DHT22;29175;51.030;4.606;2022-09-14T06:01:16;17.30;99.90
43581;DHT22;29175;51.030;4.606;2022-09-14T06:03:42;17.30;99.90
43581;DHT22;29175;51.030;4.606;2022-09-14T06:06:10;17.20;99.90
43581;DHT22;29175;51.030;4.606;2022-09-14T06:08:37;17.30;99.90
43581;DHT22;29175;51.030;4.606;2022-09-14T06:11:10;17.40;99.90
43581;DHT22;29175;51.030;4.606;2022-09-14T06:13:36;17.40;99.90
43581;DHT22;29175;51.030;4.606;2022-09-14T06:16:06;17.40;99.90
43581;DHT22;29175;51.030;4.606;2022-09-14T06:18:34;17.40;99.90
43581;DHT22;29175;51.030;4.606;2022-09-14T06:21:01;17.10;99.90
43581;DHT22;29175;51.030;4.606;2022-09-14T06:23:28;17.10;99.90
43581;DHT22;29175;51.030;4.606;2022-09-14T06:25:55;17.00;99.90
43581;DHT22;29175;51.030;4.606;2022-09-14T06:28:22;17.10;99.90
43581;DHT22;29175;51.030;4.606;2022-09-14T06:30:48;17.10;99.90
43581;DHT22;29175;51.030;4.606;2022-09-14T06:33:14;17.20;99.90
43581;DHT22;29175;51.030;4.606;2022-09-14T06:35:40;17.20;99.90
43581;DHT22;29175;51.030;4.606;2022-09-14T06:38:07;17.30;99.90
43581;DHT22;29175;51.030;4.606;2022-09-14T06:40:33;17.80;99.90
43581;DHT22;29175;51.030;4.606;2022-09-14T06:42:59;17.70;99.90
43581;DHT22;29175;51.030;4.606;2022-09-14T06:45:31;17.60;99.90
43581;DHT22;29175;51.030;4.606;2022-09-14T06:47:57;17.50;99.90
43581;DHT22;29175;51.030;4.606;2022-09-14T06:50:26;17.30;99.90
43581;DHT22;29175;51.030;4.606;2022-09-14T06:52:52;17.40;99.90
43581;DHT22;29175;51.030;4.606;2022-09-14T06:55:18;17.40;99.90
43581;DHT22;29175;51.030;4.606;2022-09-14T06:57:46;17.60;99.90
43581;DHT22;29175;51.030;4.606;2022-09-14T07:00:13;17.70;99.90
43581;DHT22;29175;51.030;4.606;2022-09-14T07:02:39;17.50;99.90
43581;DHT22;29175;51.030;4.606;2022-09-14T07:05:05;17.40;99.90
43581;DHT22;29175;51.030;4.606;2022-09-14T07:07:31;17.60;99.90
43581;DHT22;29175;51.030;4.606;2022-09-14T07:09:58;17.80;99.90
43581;DHT22;29175;51.030;4.606;2022-09-14T07:12:23;18.10;99.90
43581;DHT22;29175;51.030;4.606;2022-09-14T07:14:49;18.20;99.90
43581;DHT22;29175;51.030;4.606;2022-09-14T07:17:14;18.10;99.90
43581;DHT22;29175;51.030;4.606;2022-09-14T07:19:42;17.70;99.90
43581;DHT22;29175;51.030;4.606;2022-09-14T07:22:07;17.70;99.90
43581;DHT22;29175;51.030;4.606;2022-09-14T07:24:33;17.70;99.90
43581;DHT22;29175;51.030;4.606;2022-09-14T07:26:59;17.80;99.90
43581;DHT22;29175;51.030;4.606;2022-09-14T07:29:24;18.00;99.90
43581;DHT22;29175;51.030;4.606;2022-09-14T07:31:52;18.00;99.90
43581;DHT22;29175;51.030;4.606;2022-09-14T07:34:21;17.70;99.90
43581;DHT22;29175;51.030;4.606;2022-09-14T07:36:48;17.60;99.90
43581;DHT22;29175;51.030;4.606;2022-09-14T07:39:15;17.60;99.90
43581;DHT22;29175;51.030;4.606;2022-09-14T07:41:41;17.70;99.90
43581;DHT22;29175;51.030;4.606;2022-09-14T07:44:08;17.60;99.90
43581;DHT22;29175;51.030;4.606;2022-09-14T07:46:40;17.50;99.90
43581;DHT22;29175;51.030;4.606;2022-09-14T07:49:08;17.70;99.90
43581;DHT22;29175;51.030;4.606;2022-09-14T07:51:35;17.80;99.90
43581;DHT22;29175;51.030;4.606;2022-09-14T07:54:02;17.90;99.90
43581;DHT22;29175;51.030;4.606;2022-09-14T07:56:28;18.00;99.90
43581;DHT22;29175;51.030;4.606;2022-09-14T07:58:55;17.80;99.90
43581;DHT22;29175;51.030;4.606;2022-09-14T08:01:22;17.90;99.90
43581;DHT22;29175;51.030;4.606;2022-09-14T08:03:48;17.70;99.90
43581;DHT22;29175;51.030;4.606;2022-09-14T08:06:17;17.80;99.90
43581;DHT22;29175;51.030;4.606;2022-09-14T08:08:45;17.50;99.90
43581;DHT22;29175;51.030;4.606;2022-09-14T08:11:16;17.70;99.90
43581;DHT22;29175;51.030;4.606;2022-09-14T08:13:47;17.80;99.90
43581;DHT22;29175;51.030;4.606;2022-09-14T08:16:14;18.00;99.90
43581;DHT22;29175;51.030;4.606;2022-09-14T08:18:39;18.00;99.90
43581;DHT22;29175;51.030;4.606;2022-09-14T08:21:14;17.80;99.90
43581;DHT22;29175;51.030;4.606;2022-09-14T08:23:42;17.90;99.90
43581;DHT22;29175;51.030;4.606;2022-09-14T08:26:11;17.80;99.90
43581;DHT22;29175;51.030;4.606;2022-09-14T08:28:37;17.90;99.90
43581;DHT22;29175;51.030;4.606;2022-09-14T08:33:35;17.70;99.90
43581;DHT22;29175;51.030;4.606;2022-09-14T08:36:01;17.60;99.90
43581;DHT22;29175;51.030;4.606;2022-09-14T08:38:27;17.70;99.90
43581;DHT22;29175;51.030;4.606;2022-09-14T08:40:53;17.80;99.90
43581;DHT22;29175;51.030;4.606;2022-09-14T08:43:22;18.00;99.90
43581;DHT22;29175;51.030;4.606;2022-09-14T08:45:53;18.30;99.90
43581;DHT22;29175;51.030;4.606;2022-09-14T08:48:27;18.00;99.90
43581;DHT22;29175;51.030;4.606;2022-09-14T08:50:53;17.60;99.90
43581;DHT22;29175;51.030;4.606;2022-09-14T08:53:23;17.30;99.90
43581;DHT22;29175;51.030;4.606;2022-09-14T08:55:59;17.00;99.90
43581;DHT22;29175;51.030;4.606;2022-09-14T09:09:31;16.80;99.90
43581;DHT22;29175;51.030;4.606;2022-09-14T09:12:01;17.10;99.90
43581;DHT22;29175;51.030;4.606;2022-09-14T09:14:34;17.00;99.90
43581;DHT22;29175;51.030;4.606;2022-09-14T09:17:04;17.20;99.90
43581;DHT22;29175;51.030;4.606;2022-09-14T09:19:44;17.20;99.90
43581;DHT22;29175;51.030;4.606;2022-09-14T09:22:16;17.40;99.90
43581;DHT22;29175;51.030;4.606;2022-09-14T09:24:49;17.20;99.90
43581;DHT22;29175;51.030;4.606;2022-09-14T09:27:17;17.00;99.90
43581;DHT22;29175;51.030;4.606;2022-09-14T09:29:43;17.30;99.90
43581;DHT22;29175;51.030;4.606;2022-09-14T09:32:17;17.20;99.90
43581;DHT22;29175;51.030;4.606;2022-09-14T09:34:43;17.30;99.90
43581;DHT22;29175;51.030;4.606;2022-09-14T09:37:20;17.40;99.90
43581;DHT22;29175;51.030;4.606;2022-09-14T09:39:47;17.50;99.90
43581;DHT22;29175;51.030;4.606;2022-09-14T09:42:22;17.60;99.90
43581;DHT22;29175;51.030;4.606;2022-09-14T09:45:00;17.50;99.90
43581;DHT22;29175;51.030;4.606;2022-09-14T09:47:40;17.50;99.90
43581;DHT22;29175;51.030;4.606;2022-09-14T09:52:51;17.60;99.90
43581;DHT22;29175;51.030;4.606;2022-09-14T09:55:21;17.50;99.90
43581;DHT22;29175;51.030;4.606;2022-09-14T09:57:48;17.30;99.90
43581;DHT22;29175;51.030;4.606;2022-09-14T10:00:24;17.40;99.90
43581;DHT22;29175;51.030;4.606;2022-09-14T10:02:51;17.50;99.90
43581;DHT22;29175;51.030;4.606;2022-09-14T10:05:28;17.70;99.90
43581;DHT22;29175;51.030;4.606;2022-09-14T10:08:01;17.70;99.90
43581;DHT22;29175;51.030;4.606;2022-09-14T10:12:59;17.90;99.90
43581;DHT22;29175;51.030;4.606;2022-09-14T10:15:28;17.90;99.90
43581;DHT22;29175;51.030;4.606;2022-09-14T10:20:44;17.60;99.90
43581;DHT22;29175;51.030;4.606;2022-09-14T10:23:32;17.70;99.90
43581;DHT22;29175;51.030;4.606;2022-09-14T10:26:16;17.50;99.90
43581;DHT22;29175;51.030;4.606;2022-09-14T10:28:46;17.30;99.90
43581;DHT22;29175;51.030;4.606;2022-09-14T10:33:45;17.10;99.90
43581;DHT22;29175;51.030;4.606;2022-09-14T10:36:37;17.20;99.90
43581;DHT22;29175;51.030;4.606;2022-09-14T10:41:54;17.70;99.90
43581;DHT22;29175;51.030;4.606;2022-09-14T10:45:02;18.00;99.90
43581;DHT22;29175;51.030;4.606;2022-09-14T10:53:18;17.90;99.90
43581;DHT22;29175;51.030;4.606;2022-09-14T10:56:25;18.10;99.90
43581;DHT22;29175;51.030;4.606;2022-09-14T11:19:43;17.70;99.90
43581;DHT22;29175;51.030;4.606;2022-09-14T11:22:29;17.50;99.90
43581;DHT22;29175;51.030;4.606;2022-09-14T11:25:02;17.50;99.90
43581;DHT22;29175;51.030;4.606;2022-09-14T11:27:39;17.70;99.90
43581;DHT22;29175;51.030;4.606;2022-09-14T11:30:37;18.00;99.90
43581;DHT22;29175;51.030;4.606;2022-09-14T11:33:10;18.20;99.90
43581;DHT22;29175;51.030;4.606;2022-09-14T11:35:41;18.00;99.90
43581;DHT22;29175;51.030;4.606;2022-09-14T11:40:51;18.20;99.90
43581;DHT22;29175;51.030;4.606;2022-09-14T11:43:32;18.30;99.90
43581;DHT22;29175;51.030;4.606;2022-09-14T11:46:10;18.20;99.90
43581;DHT22;29175;51.030;4.606;2022-09-14T11:49:08;18.30;99.90
43581;DHT22;29175;51.030;4.606;2022-09-14T11:51:50;18.10;99.90
43581;DHT22;29175;51.030;4.606;2022-09-14T11:54:17;18.40;99.90
43581;DHT22;29175;51.030;4.606;2022-09-14T11:56:57;18.30;99.90
43581;DHT22;29175;51.030;4.606;2022-09-14T11:59:46;18.00;99.90
43581;DHT22;29175;51.030;4.606;2022-09-14T12:10:25;17.30;99.90
43581;DHT22;29175;51.030;4.606;2022-09-14T12:12:56;17.50;99.90
43581;DHT22;29175;51.030;4.606;2022-09-14T12:36:11;17.70;99.90
43581;DHT22;29175;51.030;4.606;2022-09-14T12:43:45;17.70;99.90
43581;DHT22;29175;51.030;4.606;2022-09-14T13:04:53;17.90;99.90
43581;DHT22;29175;51.030;4.606;2022-09-14T13:07:21;18.10;99.90
43581;DHT22;29175;51.030;4.606;2022-09-14T13:09:53;18.30;99.90
43581;DHT22;29175;51.030;4.606;2022-09-14T13:15:01;18.60;99.90
43581;DHT22;29175;51.030;4.606;2022-09-14T13:17:28;18.60;99.90
43581;DHT22;29175;51.030;4.606;2022-09-14T13:19:57;18.60;99.90
43581;DHT22;29175;51.030;4.606;2022-09-14T13:22:25;18.80;99.90
43581;DHT22;29175;51.030;4.606;2022-09-14T13:24:53;18.90;99.90
43581;DHT22;29175;51.030;4.606;2022-09-14T13:27:21;18.90;99.90
43581;DHT22;29175;51.030;4.606;2022-09-14T13:30:16;18.80;99.90
43581;DHT22;29175;51.030;4.606;2022-09-14T13:32:45;18.70;99.90
43581;DHT22;29175;51.030;4.606;2022-09-14T13:37:57;18.50;99.90
43581;DHT22;29175;51.030;4.606;2022-09-14T13:40:24;18.40;99.90
43581;DHT22;29175;51.030;4.606;2022-09-14T13:42:52;18.40;99.90
43581;DHT22;29175;51.030;4.606;2022-09-14T13:45:18;18.40;99.90
43581;DHT22;29175;51.030;4.606;2022-09-14T13:47:46;18.30;99.90
43581;DHT22;29175;51.030;4.606;2022-09-14T13:50:13;18.30;99.90
43581;DHT22;29175;51.030;4.606;2022-09-14T13:52:41;18.40;99.90
43581;DHT22;29175;51.030;4.606;2022-09-14T14:00:57;18.60;99.90
43581;DHT22;29175;51.030;4.606;2022-09-14T14:03:41;18.40;99.90
43581;DHT22;29175;51.030;4.606;2022-09-14T14:06:31;18.30;99.90
43581;DHT22;29175;51.030;4.606;2022-09-14T14:09:04;18.60;99.90
43581;DHT22;29175;51.030;4.606;2022-09-14T14:11:33;18.30;99.90
43581;DHT22;29175;51.030;4.606;2022-09-14T14:14:24;18.60;99.90
43581;DHT22;29175;51.030;4.606;2022-09-14T14:17:10;18.70;99.90
43581;DHT22;29175;51.030;4.606;2022-09-14T14:25:50;18.70;99.90
43581;DHT22;29175;51.030;4.606;2022-09-14T14:28:29;18.20;99.90
43581;DHT22;29175;51.030;4.606;2022-09-14T14:30:56;18.40;99.90
43581;DHT22;29175;51.030;4.606;2022-09-14T14:33:23;18.40;99.90
43581;DHT22;29175;51.030;4.606;2022-09-14T14:35:51;18.40;99.90
43581;DHT22;29175;51.030;4.606;2022-09-14T14:38:20;18.40;99.90
43581;DHT22;29175;51.030;4.606;2022-09-14T14:40:48;18.20;99.90
43581;DHT22;29175;51.030;4.606;2022-09-14T14:43:20;18.20;99.90
43581;DHT22;29175;51.030;4.606;2022-09-14T14:45:54;18.30;99.90
43581;DHT22;29175;51.030;4.606;2022-09-14T14:48:20;18.50;99.90
43581;DHT22;29175;51.030;4.606;2022-09-14T14:50:46;18.30;99.90
43581;DHT22;29175;51.030;4.606;2022-09-14T14:53:14;18.00;99.90
43581;DHT22;29175;51.030;4.606;2022-09-14T14:55:42;18.30;99.90
43581;DHT22;29175;51.030;4.606;2022-09-14T14:58:14;18.50;99.90
43581;DHT22;29175;51.030;4.606;2022-09-14T15:00:42;18.60;99.90
43581;DHT22;29175;51.030;4.606;2022-09-14T15:03:08;18.40;99.90
43581;DHT22;29175;51.030;4.606;2022-09-14T15:05:39;18.20;99.90
43581;DHT22;29175;51.030;4.606;2022-09-14T15:08:11;18.30;99.90
43581;DHT22;29175;51.030;4.606;2022-09-14T15:10:39;18.10;99.90
43581;DHT22;29175;51.030;4.606;2022-09-14T15:13:06;17.80;99.90
43581;DHT22;29175;51.030;4.606;2022-09-14T15:15:32;17.90;99.90
43581;DHT22;29175;51.030;4.606;2022-09-14T15:17:58;18.00;99.90
43581;DHT22;29175;51.030;4.606;2022-09-14T15:20:24;18.10;99.90
43581;DHT22;29175;51.030;4.606;2022-09-14T15:22:50;18.00;99.90
43581;DHT22;29175;51.030;4.606;2022-09-14T15:25:18;17.70;99.90
43581;DHT22;29175;51.030;4.606;2022-09-14T15:27:44;17.80;99.90
43581;DHT22;29175;51.030;4.606;2022-09-14T15:30:12;17.70;99.90
43581;DHT22;29175;51.030;4.606;2022-09-14T15:32:38;17.90;99.90
43581;DHT22;29175;51.030;4.606;2022-09-14T15:35:05;17.80;99.90
43581;DHT22;29175;51.030;4.606;2022-09-14T15:37:32;17.90;99.90
43581;DHT22;29175;51.030;4.606;2022-09-14T15:39:57;18.20;99.90
43581;DHT22;29175;51.030;4.606;2022-09-14T15:42:23;18.10;99.90
43581;DHT22;29175;51.030;4.606;2022-09-14T15:44:50;17.90;99.90
43581;DHT22;29175;51.030;4.606;2022-09-14T15:47:16;17.80;99.90
43581;DHT22;29175;51.030;4.606;2022-09-14T15:49:41;17.80;99.90
43581;DHT22;29175;51.030;4.606;2022-09-14T15:52:10;17.80;99.90
43581;DHT22;29175;51.030;4.606;2022-09-14T15:54:36;17.90;99.90
43581;DHT22;29175;51.030;4.606;2022-09-14T15:57:05;17.90;99.90
43581;DHT22;29175;51.030;4.606;2022-09-14T15:59:32;17.90;99.90
43581;DHT22;29175;51.030;4.606;2022-09-14T16:01:58;18.20;99.90
43581;DHT22;29175;51.030;4.606;2022-09-14T16:04:23;18.20;99.90
43581;DHT22;29175;51.030;4.606;2022-09-14T16:06:49;18.10;99.90
43581;DHT22;29175;51.030;4.606;2022-09-14T16:09:16;17.80;99.90
43581;DHT22;29175;51.030;4.606;2022-09-14T16:11:42;17.90;99.90
43581;DHT22;29175;51.030;4.606;2022-09-14T16:14:09;17.80;99.90
43581;DHT22;29175;51.030;4.606;2022-09-14T16:16:36;17.50;99.90
43581;DHT22;29175;51.030;4.606;2022-09-14T16:19:07;17.70;99.90
43581;DHT22;29175;51.030;4.606;2022-09-14T16:21:33;17.80;99.90
43581;DHT22;29175;51.030;4.606;2022-09-14T16:24:00;17.70;99.90
43581;DHT22;29175;51.030;4.606;2022-09-14T16:26:31;17.70;99.90
43581;DHT22;29175;51.030;4.606;2022-09-14T16:28:57;18.10;99.90
43581;DHT22;29175;51.030;4.606;2022-09-14T16:31:28;18.10;99.90
43581;DHT22;29175;51.030;4.606;2022-09-14T16:33:57;18.40;99.90
43581;DHT22;29175;51.030;4.606;2022-09-14T16:36:25;18.20;99.90
43581;DHT22;29175;51.030;4.606;2022-09-14T16:38:57;17.90;99.90
43581;DHT22;29175;51.030;4.606;2022-09-14T16:41:23;17.90;99.90
43581;DHT22;29175;51.030;4.606;2022-09-14T16:43:56;17.90;99.90
43581;DHT22;29175;51.030;4.606;2022-09-14T16:46:24;17.80;99.90
43581;DHT22;29175;51.030;4.606;2022-09-14T16:48:50;17.90;99.90
43581;DHT22;29175;51.030;4.606;2022-09-14T16:51:19;17.90;99.90
43581;DHT22;29175;51.030;4.606;2022-09-14T16:53:47;17.90;99.90
43581;DHT22;29175;51.030;4.606;2022-09-14T16:56:16;17.80;99.90
43581;DHT22;29175;51.030;4.606;2022-09-14T16:58:44;17.80;99.90
43581;DHT22;29175;51.030;4.606;2022-09-14T17:01:14;18.10;99.90
43581;DHT22;29175;51.030;4.606;2022-09-14T17:03:39;18.10;99.90
43581;DHT22;29175;51.030;4.606;2022-09-14T17:06:16;18.20;99.90
43581;DHT22;29175;51.030;4.606;2022-09-14T17:08:43;18.00;99.90
43581;DHT22;29175;51.030;4.606;2022-09-14T17:11:09;17.90;99.90
43581;DHT22;29175;51.030;4.606;2022-09-14T17:13:35;17.90;99.90
43581;DHT22;29175;51.030;4.606;2022-09-14T17:16:11;17.80;99.90
43581;DHT22;29175;51.030;4.606;2022-09-14T17:18:39;17.80;99.90
43581;DHT22;29175;51.030;4.606;2022-09-14T17:21:08;18.00;99.90
43581;DHT22;29175;51.030;4.606;2022-09-14T17:23:34;18.10;99.90
43581;DHT22;29175;51.030;4.606;2022-09-14T17:26:02;18.10;99.90
43581;DHT22;29175;51.030;4.606;2022-09-14T17:28:30;18.30;99.90
43581;DHT22;29175;51.030;4.606;2022-09-14T17:30:58;18.20;99.90
43581;DHT22;29175;51.030;4.606;2022-09-14T17:33:26;18.10;99.90
43581;DHT22;29175;51.030;4.606;2022-09-14T17:35:54;17.80;99.90
43581;DHT22;29175;51.030;4.606;2022-09-14T17:38:21;17.40;99.90
43581;DHT22;29175;51.030;4.606;2022-09-14T17:40:47;17.20;99.90
43581;DHT22;29175;51.030;4.606;2022-09-14T17:43:14;17.40;99.90
43581;DHT22;29175;51.030;4.606;2022-09-14T17:45:55;17.30;99.90
43581;DHT22;29175;51.030;4.606;2022-09-14T17:48:21;17.40;99.90
43581;DHT22;29175;51.030;4.606;2022-09-14T17:50:47;17.30;99.90
43581;DHT22;29175;51.030;4.606;2022-09-14T17:53:13;17.40;99.90
43581;DHT22;29175;51.030;4.606;2022-09-14T17:55:41;17.60;99.90
43581;DHT22;29175;51.030;4.606;2022-09-14T17:58:07;17.70;99.90
43581;DHT22;29175;51.030;4.606;2022-09-14T18:00:34;17.70;99.90
43581;DHT22;29175;51.030;4.606;2022-09-14T18:02:59;17.90;99.90
43581;DHT22;29175;51.030;4.606;2022-09-14T18:05:26;17.70;99.90
43581;DHT22;29175;51.030;4.606;2022-09-14T18:07:53;17.50;99.90
43581;DHT22;29175;51.030;4.606;2022-09-14T18:10:19;17.60;99.90
43581;DHT22;29175;51.030;4.606;2022-09-14T18:12:46;17.50;99.90
43581;DHT22;29175;51.030;4.606;2022-09-14T18:15:13;17.50;99.90
43581;DHT22;29175;51.030;4.606;2022-09-14T18:17:40;17.30;99.90